AirNav   Duncan Aviation - Near you to keep you flying
 
 1208 users online  

9WI9 Carlson Airport
Superior, Wisconsin, USA

GOING TO SUPERIOR?


FAA INFORMATION EFFECTIVE 09 SEPTEMBER 2021

Location

FAA Identifier: 9WI9
Lat/Long: 46-37-14.7850N 092-04-54.6880W
46-37.246417N 092-04.911467W
46.6207736,-92.0818578
(estimated)
Elevation: 680 ft. / 207 m (estimated)
Variation: 02E (1985)
From city: 3 miles S of SUPERIOR, WI
Time zone: UTC -5 (UTC -6 during Standard Time)
Zip code: 54880

Airport Operations

Airport use: Private use. Permission required prior to landing
Activation date: 02/1948
Control tower: no
ARTCC: MINNEAPOLIS CENTER
FSS: GREEN BAY FLIGHT SERVICE STATION
Attendance: UNATNDD
Wind indicator: yes
Segmented circle: no

Airport Communications

WX AWOS-3 at SUW (4 nm N): 120.35 (715-394-0283)
WX AWOS-3 at DYT (6 nm N): 119.275 (218-720-4886)
WX ASOS at DLH (14 nm N): PHONE 218-740-5977
WX AWOS-3 at COQ (18 nm W): 118.525 (218-879-0783)

Nearby radio navigation aids

VOR radial/distance  VOR name  Freq  Var
DLHr150/12.0DULUTH VORTAC112.6005E

Airport Services

Runway Information

Runway 9/27

Dimensions: 2500 x 75 ft. / 762 x 23 m
Surface: turf
RUNWAY 9  RUNWAY 27
Traffic pattern: leftleft
Obstructions: trees, 300 ft. from runwaynone

Airport Ownership and Management from official FAA records

Ownership: Privately-owned
Owner: EARL CARLSON
RT 1 BOX 60
SUPERIOR, WI 54880
Phone 715-394-7397

Airport Operational Statistics

Aircraft based on the field: 3
Single engine airplanes: 3
    

Additional Remarks

FOR CD CTC MINNEAPOLIS ARTCC AT 651-463-5588.

Instrument Procedures

There are no published instrument procedures at 9WI9.

Some nearby airports with instrument procedures:

KSUW - Richard I Bong Airport (4 nm N)
KDLH - Duluth International Airport (14 nm N)
KCOQ - Cloquet/Carlton County Airport (18 nm W)
KOLG - Solon Springs Municipal Airport (21 nm SE)
KTWM - Richard B Helgeson Airport (29 nm NE)
 
Loc | Ops | Rwys | IFR | FBO | Links
Com | Nav | Svcs | Stats | Notes
Area around 9WI9 (Carlson Airport)
 
Road maps at: MapQuest Bing Google
 
Aerial photo
No photo
 
Sectional chart

 
Airport distance calculator
Flying to Carlson Airport? Find the distance to fly.

From to 9WI9

Sunrise and sunset
Times for 23-Sep-2021
 Local
(UTC-5)
 Zulu
(UTC)
Morning civil twilight06:2711:27
Sunrise06:5711:57
Sunset19:0400:04
Evening civil twilight19:3400:34

Current date and time
Zulu (UTC)  24-Sep-2021 00:48:53
Local (UTC-5)  23-Sep-2021 19:48:53
 
METAR
KSUW 
13nm S 
240035Z AUTO 02005KT 10SM CLR 14/10 A2993 RMK AO2 T01410099
KDLH 
15nm N 
232355Z 13006KT 10SM FEW120 16/08 A2993 RMK AO2 SLP142 T01610083 10217 20161 56011
KCOQ 
18nm W 
240035Z AUTO 00000KT 10SM CLR 14/07 A2993 RMK AO2 TSNO
TAF
KDLH 
15nm N 
231734Z 2318/2418 21005KT P6SM SKC FM241100 30006KT P6SM VCSH BKN100 FM241600 30014G22KT P6SM VCSH BKN060
NOTAMs
Click for the latest NOTAMs
NOTAMs are issued by the DoD/FAA and will open in a separate window not controlled by AirNav.

 

 
 

Would you like to see your business listed on this page?

 If your business provides an interesting product or service to pilots, flight crews, aircraft, or users of the Carlson Airport, you should consider listing it here.  To start the listing process, click on the button below
 
Add a business
 

Other Pages about Carlson Airport

Update a link
 
Copyright © AirNav, LLC. All rights reserved. Privacy Policy  Contact